Pahoa, Hawaii
Current Conditions -  °F | °C
As of 7:53 PM on Saturday 25 Oct 2014 (Local Time) from PHTO Reporting Station
Overcast Overcast  
Wind Chill: 74°   Ceiling: 2700
Heat Index: 74°   Visibility: 10mi
Dew Point: 71°   Wind: 5mph
Humidity: 91%   Direction: 230°SW
Pressure: 30.04"   Gusts: NA
Location:  19.49°N, 154.94°W
Report Text: PHTO 260553Z 23004KT 10SM FEW021 BKN027 OVC038 23/22 A3004 RMK AO2 SLP170 60023 T02330217 10294 20228 51012
Loading
Personal Weather Stations






























Interactive Weather Map
Tropical Storm Tracking
New forecast layout! Learn more

10-Day Weather Forecast

Advertisements
Track Severe Weather on mobile